createdAt,value
2018-12-12T00:00:38.817Z,52.20
2018-12-12T00:03:06.269Z,52.30
2018-12-12T00:05:33.752Z,52.30
2018-12-12T00:08:01.193Z,52.30
2018-12-12T00:10:28.639Z,52.30
2018-12-12T00:12:56.089Z,52.30
2018-12-12T00:15:23.546Z,52.30
2018-12-12T00:17:51.299Z,52.30
2018-12-12T00:20:18.800Z,52.30
2018-12-12T00:22:46.251Z,52.40
2018-12-12T00:25:13.709Z,52.40
2018-12-12T00:27:41.161Z,52.40
2018-12-12T00:30:08.610Z,52.40
2018-12-12T00:32:36.049Z,52.40
2018-12-12T00:35:03.741Z,52.40
2018-12-12T00:37:31.190Z,53.00
2018-12-12T00:39:58.644Z,52.30
2018-12-12T00:42:26.107Z,52.30
2018-12-12T00:44:53.560Z,52.20
2018-12-12T00:47:21.016Z,52.20
2018-12-12T00:49:48.570Z,52.30
2018-12-12T00:52:16.005Z,52.40
2018-12-12T00:54:43.660Z,52.50
2018-12-12T00:57:11.101Z,52.40
2018-12-12T00:59:38.877Z,52.40
2018-12-12T01:02:06.313Z,52.40
2018-12-12T01:04:33.817Z,52.40
2018-12-12T01:07:01.279Z,52.40
2018-12-12T01:09:28.738Z,52.40
2018-12-12T01:12:01.464Z,52.40
2018-12-12T01:14:28.904Z,52.30
2018-12-12T01:16:56.424Z,52.30
2018-12-12T01:19:23.860Z,52.30
2018-12-12T01:21:51.304Z,52.20
2018-12-12T01:24:18.788Z,52.20
2018-12-12T01:26:46.252Z,52.20
2018-12-12T01:29:13.704Z,52.20
2018-12-12T01:31:41.160Z,52.20
2018-12-12T01:34:08.617Z,52.20
2018-12-12T01:36:36.069Z,52.20
2018-12-12T01:39:05.880Z,52.20
2018-12-12T01:41:33.540Z,52.20
2018-12-12T01:44:01.006Z,52.20
2018-12-12T01:46:28.557Z,52.20
2018-12-12T01:48:55.996Z,52.20
2018-12-12T01:51:23.440Z,52.20
2018-12-12T01:53:50.882Z,52.20
2018-12-12T01:56:18.327Z,52.20
2018-12-12T01:58:45.845Z,52.20
2018-12-12T02:01:13.396Z,52.20
2018-12-12T02:03:40.856Z,52.20
2018-12-12T02:06:08.413Z,52.10
2018-12-12T02:08:35.868Z,52.10
2018-12-12T02:11:03.309Z,52.10
2018-12-12T02:13:35.215Z,52.20
2018-12-12T02:16:04.893Z,52.10
2018-12-12T02:18:32.969Z,52.20
2018-12-12T02:21:00.728Z,52.20
2018-12-12T02:23:28.495Z,52.20
2018-12-12T02:25:56.044Z,52.20
2018-12-12T02:28:23.501Z,52.20
2018-12-12T02:30:50.948Z,52.20
2018-12-12T02:33:18.426Z,52.20
2018-12-12T02:35:45.976Z,52.20
2018-12-12T02:38:13.424Z,52.20
2018-12-12T02:40:41.156Z,52.20
2018-12-12T02:43:08.645Z,52.20
2018-12-12T02:45:36.090Z,52.20
2018-12-12T02:48:03.561Z,52.20
2018-12-12T02:50:31.018Z,52.20
2018-12-12T02:52:58.468Z,52.20
2018-12-12T02:55:25.925Z,52.20
2018-12-12T02:57:53.383Z,52.20
2018-12-12T03:00:20.845Z,52.20
2018-12-12T03:02:48.396Z,52.20
2018-12-12T03:05:15.833Z,52.20
2018-12-12T03:07:43.285Z,52.20
2018-12-12T03:10:10.722Z,52.30
2018-12-12T03:12:38.224Z,52.20
2018-12-12T03:15:05.680Z,52.20
2018-12-12T03:17:33.257Z,52.20
2018-12-12T03:20:00.797Z,51.80
2018-12-12T03:22:28.353Z,52.20
2018-12-12T03:24:55.813Z,52.20
2018-12-12T03:27:23.260Z,52.10
2018-12-12T03:29:50.820Z,52.20
2018-12-12T03:32:18.272Z,52.10
2018-12-12T03:34:45.712Z,52.10
2018-12-12T03:37:13.297Z,52.10
2018-12-12T03:39:40.748Z,52.20
2018-12-12T03:42:08.224Z,52.20
2018-12-12T03:44:35.769Z,52.20
2018-12-12T03:47:03.283Z,52.20
2018-12-12T03:49:30.729Z,52.20
2018-12-12T03:51:58.229Z,52.20
2018-12-12T03:54:25.688Z,52.20
2018-12-12T03:56:53.148Z,52.20
2018-12-12T03:59:20.591Z,52.20
2018-12-12T04:01:48.080Z,52.20
2018-12-12T04:04:15.512Z,52.30
2018-12-12T04:06:42.968Z,52.20
2018-12-12T04:09:10.443Z,52.20
2018-12-12T04:11:37.984Z,52.20
2018-12-12T04:14:05.437Z,52.20
2018-12-12T04:16:32.895Z,52.20
2018-12-12T04:19:00.468Z,52.20
2018-12-12T04:21:27.908Z,52.20
2018-12-12T04:23:55.573Z,52.20
2018-12-12T04:26:23.040Z,52.20
2018-12-12T04:28:50.589Z,52.20
2018-12-12T04:31:18.457Z,52.20
2018-12-12T04:33:46.029Z,52.20
2018-12-12T04:36:13.568Z,52.20
2018-12-12T04:38:41.088Z,52.20
2018-12-12T04:41:08.580Z,52.20
2018-12-12T04:43:36.060Z,52.20
2018-12-12T04:46:03.638Z,52.20
2018-12-12T04:48:31.262Z,52.20
2018-12-12T04:50:58.732Z,52.20
2018-12-12T04:53:26.271Z,52.30
2018-12-12T04:55:53.705Z,52.30
2018-12-12T04:58:21.182Z,52.30
2018-12-12T05:00:48.646Z,52.30
2018-12-12T05:03:16.116Z,52.40
2018-12-12T05:05:43.650Z,52.30
2018-12-12T05:08:11.127Z,52.30
2018-12-12T05:10:38.674Z,52.30
2018-12-12T05:13:06.235Z,52.30
2018-12-12T05:15:33.700Z,52.30
2018-12-12T05:18:01.304Z,52.30
2018-12-12T05:20:28.743Z,52.30
2018-12-12T05:22:56.220Z,52.30
2018-12-12T05:25:23.713Z,52.30
2018-12-12T05:27:51.264Z,52.40
2018-12-12T05:30:18.725Z,52.40
2018-12-12T05:32:46.199Z,52.40
2018-12-12T05:35:13.628Z,52.40
2018-12-12T05:37:41.081Z,52.40
2018-12-12T05:40:08.787Z,52.40
2018-12-12T05:42:36.384Z,52.10
2018-12-12T05:45:04.689Z,51.70
2018-12-12T05:47:32.149Z,51.10
2018-12-12T05:49:59.594Z,51.10
2018-12-12T05:52:27.075Z,49.40
2018-12-12T05:54:54.613Z,49.60
2018-12-12T05:57:22.073Z,48.40
2018-12-12T05:59:49.605Z,47.80
2018-12-12T06:02:17.086Z,47.20
2018-12-12T06:04:44.563Z,46.90
2018-12-12T06:07:12.098Z,47.00
2018-12-12T06:09:39.578Z,46.60
2018-12-12T06:12:07.117Z,46.20
2018-12-12T06:14:34.678Z,46.70
2018-12-12T06:17:02.129Z,46.60
2018-12-12T06:19:29.585Z,46.90
2018-12-12T06:21:57.105Z,47.20
2018-12-12T06:24:24.561Z,48.90
2018-12-12T06:26:52.052Z,48.50
2018-12-12T06:29:19.517Z,48.40
2018-12-12T06:31:46.980Z,48.10
2018-12-12T06:34:14.417Z,47.50
2018-12-12T06:36:41.899Z,47.80
2018-12-12T06:39:09.361Z,47.50
2018-12-12T06:41:36.805Z,47.90
2018-12-12T06:44:04.357Z,48.90
2018-12-12T06:46:31.823Z,48.40
2018-12-12T06:48:59.364Z,48.20
2018-12-12T06:51:26.797Z,48.20
2018-12-12T06:53:54.340Z,48.50
2018-12-12T06:56:21.779Z,48.70
2018-12-12T06:58:49.307Z,48.90
2018-12-12T07:01:16.849Z,49.00
2018-12-12T07:03:44.302Z,49.10
2018-12-12T07:06:11.780Z,49.20
2018-12-12T07:08:39.320Z,49.30
2018-12-12T07:11:06.799Z,49.40
2018-12-12T07:13:35.787Z,49.50
2018-12-12T07:16:03.624Z,49.60
2018-12-12T07:18:31.088Z,49.70
2018-12-12T07:20:58.571Z,49.70
2018-12-12T07:23:26.446Z,49.70
2018-12-12T07:25:53.979Z,49.80
2018-12-12T07:28:21.408Z,49.90
2018-12-12T07:30:48.856Z,49.90
2018-12-12T07:33:17.157Z,50.00
2018-12-12T07:35:44.605Z,50.00
2018-12-12T07:38:12.252Z,50.00
2018-12-12T07:40:39.729Z,50.10
2018-12-12T07:43:07.182Z,50.10
2018-12-12T07:45:35.192Z,50.20
2018-12-12T07:48:02.931Z,50.20
2018-12-12T07:50:30.368Z,50.30
2018-12-12T07:52:57.828Z,50.30
2018-12-12T07:55:25.396Z,50.40
2018-12-12T07:57:52.860Z,50.40
2018-12-12T08:00:20.422Z,50.40
2018-12-12T08:02:47.973Z,50.40
2018-12-12T08:05:15.437Z,50.40
2018-12-12T08:07:42.996Z,50.40
2018-12-12T08:10:10.555Z,50.50
2018-12-12T08:12:37.997Z,50.50
2018-12-12T08:15:05.540Z,50.50
2018-12-12T08:17:33.028Z,50.50
2018-12-12T08:20:00.560Z,50.60
2018-12-12T08:22:28.036Z,50.60
2018-12-12T08:24:55.595Z,50.70
2018-12-12T08:27:23.768Z,50.70
2018-12-12T08:29:51.427Z,50.70
2018-12-12T08:32:18.965Z,50.70
2018-12-12T08:34:46.415Z,50.80
2018-12-12T08:37:13.853Z,50.70
2018-12-12T08:39:41.344Z,50.70
2018-12-12T08:42:08.888Z,50.70
2018-12-12T08:44:36.412Z,50.70
2018-12-12T08:47:03.909Z,50.80
2018-12-12T08:49:31.368Z,50.80
2018-12-12T08:51:58.833Z,50.90
2018-12-12T08:54:26.373Z,50.90
2018-12-12T08:56:54.156Z,50.90
2018-12-12T08:59:21.701Z,50.90
2018-12-12T09:01:49.158Z,50.90
2018-12-12T09:04:16.596Z,50.90
2018-12-12T09:06:44.073Z,50.90
2018-12-12T09:09:11.500Z,50.90
2018-12-12T09:11:39.003Z,50.90
2018-12-12T09:14:06.538Z,50.90
2018-12-12T09:16:34.072Z,50.90
2018-12-12T09:19:01.535Z,50.90
2018-12-12T09:21:29.014Z,50.90
2018-12-12T09:23:56.472Z,50.90
2018-12-12T09:26:24.039Z,50.90
2018-12-12T09:28:51.497Z,50.90
2018-12-12T09:31:18.938Z,50.90
2018-12-12T09:33:46.372Z,50.90
2018-12-12T09:36:13.846Z,50.90
2018-12-12T09:38:41.572Z,51.00
2018-12-12T09:41:09.084Z,50.90
2018-12-12T09:43:36.640Z,50.90
2018-12-12T09:46:04.081Z,50.90
2018-12-12T09:48:31.541Z,50.90
2018-12-12T09:51:06.876Z,51.00
2018-12-12T09:53:28.525Z,51.00
2018-12-12T09:55:55.968Z,50.90
2018-12-12T09:58:23.413Z,51.10
2018-12-12T10:00:50.969Z,51.70
2018-12-12T10:03:18.408Z,50.90
2018-12-12T10:05:45.880Z,51.60
2018-12-12T10:08:13.440Z,50.90
2018-12-12T10:10:40.898Z,50.90
2018-12-12T10:13:08.458Z,51.00
2018-12-12T10:15:36.032Z,51.00
2018-12-12T10:18:03.493Z,51.10
2018-12-12T10:20:30.932Z,51.30
2018-12-12T10:22:58.477Z,51.80
2018-12-12T10:25:25.946Z,51.00
2018-12-12T10:27:53.454Z,51.00
2018-12-12T10:30:20.977Z,51.00
2018-12-12T10:32:48.416Z,51.00
2018-12-12T10:35:15.857Z,51.40
2018-12-12T10:37:43.329Z,51.00
2018-12-12T10:40:10.878Z,51.00
2018-12-12T10:42:38.324Z,51.10
2018-12-12T10:45:06.077Z,51.10
2018-12-12T10:47:33.544Z,51.20
2018-12-12T10:50:01.016Z,51.10
2018-12-12T10:52:29.402Z,51.10
2018-12-12T10:54:56.937Z,51.20
2018-12-12T10:57:24.404Z,51.10
2018-12-12T10:59:51.953Z,51.10
2018-12-12T11:02:25.024Z,51.20
2018-12-12T11:04:52.473Z,51.20
2018-12-12T11:07:19.929Z,51.20
2018-12-12T11:09:47.409Z,51.10
2018-12-12T11:12:14.869Z,51.10
2018-12-12T11:14:42.317Z,51.10
2018-12-12T11:17:09.777Z,51.00
2018-12-12T11:19:37.229Z,51.10
2018-12-12T11:22:04.693Z,51.00
2018-12-12T11:24:32.175Z,51.60
2018-12-12T11:26:59.709Z,51.00
2018-12-12T11:29:27.376Z,51.00
2018-12-12T11:31:54.828Z,51.00
2018-12-12T11:34:22.273Z,51.00
2018-12-12T11:36:49.721Z,51.00
2018-12-12T11:39:17.248Z,51.00
2018-12-12T11:41:44.753Z,51.00
2018-12-12T11:44:12.216Z,51.00
2018-12-12T11:46:39.669Z,51.00
2018-12-12T11:49:07.224Z,51.00
2018-12-12T11:51:34.692Z,51.00
2018-12-12T11:54:02.241Z,51.00
2018-12-12T11:56:29.688Z,51.00
2018-12-12T11:58:57.141Z,51.00
2018-12-12T12:01:24.667Z,51.00
2018-12-12T12:03:56.696Z,51.00
2018-12-12T12:06:22.034Z,51.00
2018-12-12T12:08:49.525Z,51.10
2018-12-12T12:11:17.288Z,51.00
2018-12-12T12:13:44.732Z,51.00
2018-12-12T12:16:12.208Z,51.00
2018-12-12T12:18:39.653Z,51.00
2018-12-12T12:21:07.121Z,50.90
2018-12-12T12:23:34.572Z,51.00
2018-12-12T12:26:02.129Z,51.00
2018-12-12T12:28:29.596Z,51.00
2018-12-12T12:30:57.164Z,50.90
2018-12-12T12:33:24.616Z,51.00
2018-12-12T12:35:52.903Z,50.90
2018-12-12T12:38:20.436Z,50.90
2018-12-12T12:40:47.994Z,51.40
2018-12-12T12:43:15.434Z,50.90
2018-12-12T12:45:42.884Z,50.90
2018-12-12T12:48:10.375Z,50.90
2018-12-12T12:50:37.822Z,50.90
2018-12-12T12:53:05.262Z,50.90
2018-12-12T12:55:32.832Z,50.90
2018-12-12T12:58:00.275Z,51.00
2018-12-12T13:00:27.739Z,50.90
2018-12-12T13:02:55.476Z,50.90
2018-12-12T13:05:22.908Z,50.90
2018-12-12T13:07:50.357Z,50.90
2018-12-12T13:10:17.809Z,50.90
2018-12-12T13:12:46.076Z,50.90
2018-12-12T13:15:13.625Z,51.10
2018-12-12T13:17:41.167Z,51.20
2018-12-12T13:20:08.600Z,51.10
2018-12-12T13:22:36.072Z,51.10
2018-12-12T13:25:03.525Z,51.10
2018-12-12T13:27:31.096Z,51.10
2018-12-12T13:29:58.550Z,51.10
2018-12-12T13:32:26.102Z,50.90
2018-12-12T13:34:53.559Z,50.70
2018-12-12T13:37:21.007Z,50.70
2018-12-12T13:39:48.469Z,50.70
2018-12-12T13:42:15.928Z,50.70
2018-12-12T13:44:43.421Z,50.70
2018-12-12T13:47:17.159Z,50.80
2018-12-12T13:49:40.449Z,50.90
2018-12-12T13:52:07.890Z,50.90
2018-12-12T13:54:35.336Z,50.90
2018-12-12T13:57:02.812Z,51.20
2018-12-12T13:59:30.880Z,51.40
2018-12-12T14:01:58.336Z,51.60
2018-12-12T14:04:25.786Z,51.80
2018-12-12T14:06:53.248Z,51.50
2018-12-12T14:09:20.709Z,51.60
2018-12-12T14:11:48.160Z,51.70
2018-12-12T14:14:15.893Z,51.70
2018-12-12T14:16:43.415Z,51.60
2018-12-12T14:19:10.949Z,51.60
2018-12-12T14:21:38.400Z,51.70
2018-12-12T14:24:05.953Z,51.70
2018-12-12T14:26:33.481Z,51.70
2018-12-12T14:29:01.285Z,51.70
2018-12-12T14:31:28.731Z,51.70
2018-12-12T14:33:56.179Z,52.40
2018-12-12T14:36:23.641Z,52.20
2018-12-12T14:38:51.108Z,52.20
2018-12-12T14:41:18.541Z,52.20
2018-12-12T14:43:45.989Z,52.10
2018-12-12T14:46:13.745Z,51.70
2018-12-12T14:48:41.183Z,51.50
2018-12-12T14:51:08.632Z,51.20
2018-12-12T14:53:36.145Z,51.20
2018-12-12T14:56:03.604Z,51.30
2018-12-12T14:58:31.040Z,51.30
2018-12-12T15:00:58.497Z,51.50
2018-12-12T15:03:25.942Z,51.60
2018-12-12T15:05:53.400Z,51.70
2018-12-12T15:08:20.907Z,52.10
2018-12-12T15:10:48.438Z,52.20
2018-12-12T15:13:15.892Z,52.30
2018-12-12T15:15:43.337Z,52.30
2018-12-12T15:18:10.805Z,52.30
2018-12-12T15:20:38.263Z,52.30
2018-12-12T15:23:05.705Z,52.20
2018-12-12T15:25:33.157Z,52.10
2018-12-12T15:28:00.629Z,52.10
2018-12-12T15:30:28.097Z,52.10
2018-12-12T15:32:55.652Z,52.20
2018-12-12T15:35:23.206Z,52.20
2018-12-12T15:37:50.664Z,52.20
2018-12-12T15:40:18.212Z,52.20
2018-12-12T15:42:45.990Z,52.20
2018-12-12T15:45:13.546Z,52.20
2018-12-12T15:47:41.000Z,52.20
2018-12-12T15:50:08.548Z,52.20
2018-12-12T15:52:36.013Z,52.20
2018-12-12T15:55:04.177Z,52.20
2018-12-12T15:57:31.635Z,52.30
2018-12-12T15:59:59.175Z,52.40
2018-12-12T16:02:26.652Z,52.40
2018-12-12T16:04:54.118Z,52.40
2018-12-12T16:07:21.561Z,52.40
2018-12-12T16:09:49.224Z,52.40
2018-12-12T16:12:16.656Z,52.40
2018-12-12T16:14:44.132Z,52.40
2018-12-12T16:17:11.592Z,52.40
2018-12-12T16:19:39.044Z,52.20
2018-12-12T16:22:06.503Z,52.20
2018-12-12T16:24:33.956Z,52.10
2018-12-12T16:27:01.420Z,52.10
2018-12-12T16:29:28.872Z,52.10
2018-12-12T16:31:56.392Z,52.10
2018-12-12T16:34:23.889Z,52.20
2018-12-12T16:36:51.338Z,52.30
2018-12-12T16:39:18.792Z,52.20
2018-12-12T16:41:46.244Z,52.30
2018-12-12T16:44:13.680Z,52.30
2018-12-12T16:46:41.161Z,52.30
2018-12-12T16:49:08.616Z,52.30
2018-12-12T16:51:36.076Z,52.30
2018-12-12T16:54:03.598Z,52.30
2018-12-12T16:56:31.024Z,52.20
2018-12-12T16:58:58.544Z,52.30
2018-12-12T17:01:26.006Z,52.40
2018-12-12T17:03:53.460Z,52.30
2018-12-12T17:06:20.901Z,52.30
2018-12-12T17:08:48.381Z,52.30
2018-12-12T17:11:15.934Z,52.20
2018-12-12T17:13:43.383Z,52.20
2018-12-12T17:16:10.845Z,52.10
2018-12-12T17:18:38.284Z,52.10
2018-12-12T17:21:05.724Z,52.00
2018-12-12T17:23:33.211Z,51.90
2018-12-12T17:26:00.668Z,51.90
2018-12-12T17:28:28.228Z,52.10
2018-12-12T17:30:55.689Z,52.10
2018-12-12T17:33:23.240Z,52.10
2018-12-12T17:35:50.692Z,52.10
2018-12-12T17:38:18.150Z,52.10
2018-12-12T17:40:45.589Z,52.10
2018-12-12T17:43:13.056Z,52.00
2018-12-12T17:45:40.524Z,52.00
2018-12-12T17:48:08.072Z,52.00
2018-12-12T17:50:35.529Z,52.00
2018-12-12T17:53:02.984Z,51.90
2018-12-12T17:55:30.445Z,52.00
2018-12-12T17:57:58.008Z,51.90
2018-12-12T18:00:25.624Z,51.90
2018-12-12T18:02:53.116Z,52.00
2018-12-12T18:05:21.496Z,51.90
2018-12-12T18:07:48.953Z,52.00
2018-12-12T18:10:16.392Z,52.10
2018-12-12T18:12:43.848Z,52.10
2018-12-12T18:15:11.316Z,52.20
2018-12-12T18:17:38.772Z,52.20
2018-12-12T18:20:06.230Z,52.20
2018-12-12T18:22:33.734Z,52.10
2018-12-12T18:25:01.263Z,52.00
2018-12-12T18:27:28.805Z,52.00
2018-12-12T18:29:56.427Z,52.00
2018-12-12T18:32:23.921Z,52.00
2018-12-12T18:34:51.380Z,51.90
2018-12-12T18:37:18.941Z,51.90
2018-12-12T18:39:46.492Z,51.90
2018-12-12T18:42:13.946Z,51.90
2018-12-12T18:44:41.408Z,51.90
2018-12-12T18:47:08.874Z,51.90
2018-12-12T18:49:36.357Z,52.00
2018-12-12T18:52:03.887Z,52.10
2018-12-12T18:54:31.546Z,52.10
2018-12-12T18:56:58.987Z,52.10
2018-12-12T18:59:26.448Z,52.10
2018-12-12T19:01:53.888Z,52.10
2018-12-12T19:04:21.336Z,52.10
2018-12-12T19:06:48.774Z,52.10
2018-12-12T19:09:16.381Z,52.10
2018-12-12T19:11:44.534Z,52.10
2018-12-12T19:14:12.214Z,52.10
2018-12-12T19:16:39.664Z,52.10
2018-12-12T19:19:07.105Z,52.10
2018-12-12T19:21:34.571Z,52.10
2018-12-12T19:24:02.041Z,52.10
2018-12-12T19:26:29.864Z,52.10
2018-12-12T19:28:57.401Z,52.20
2018-12-12T19:31:24.914Z,52.20
2018-12-12T19:33:52.365Z,52.10
2018-12-12T19:36:19.825Z,52.10
2018-12-12T19:38:47.260Z,52.10
2018-12-12T19:41:14.746Z,52.10
2018-12-12T19:43:42.193Z,52.10
2018-12-12T19:46:09.649Z,52.10
2018-12-12T19:48:37.112Z,52.10
2018-12-12T19:51:04.550Z,52.10
2018-12-12T19:53:32.016Z,52.20
2018-12-12T19:55:59.477Z,52.20
2018-12-12T19:58:26.924Z,52.20
2018-12-12T20:00:54.380Z,52.20
2018-12-12T20:03:21.836Z,52.30
2018-12-12T20:05:49.288Z,52.30
2018-12-12T20:08:16.752Z,52.30
2018-12-12T20:10:44.201Z,52.90
2018-12-12T20:13:11.637Z,52.20
2018-12-12T20:15:43.705Z,52.30
2018-12-12T20:18:11.154Z,52.30
2018-12-12T20:20:38.612Z,52.10
2018-12-12T20:23:06.049Z,52.10
2018-12-12T20:25:33.549Z,52.20
2018-12-12T20:28:01.006Z,52.20
2018-12-12T20:30:28.471Z,52.20
2018-12-12T20:32:55.916Z,52.20
2018-12-12T20:35:23.372Z,52.20
2018-12-12T20:37:50.821Z,52.20
2018-12-12T20:40:18.285Z,52.20
2018-12-12T20:42:45.737Z,52.10
2018-12-12T20:45:13.201Z,52.30
2018-12-12T20:47:40.645Z,52.20
2018-12-12T20:50:08.108Z,52.20
2018-12-12T20:52:35.556Z,52.20
2018-12-12T20:55:03.041Z,52.30
2018-12-12T20:57:31.093Z,52.40
2018-12-12T20:59:58.544Z,52.30
2018-12-12T21:02:26.000Z,52.30
2018-12-12T21:04:53.437Z,52.30
2018-12-12T21:07:20.914Z,52.30
2018-12-12T21:09:48.377Z,52.30
2018-12-12T21:12:15.824Z,52.30
2018-12-12T21:14:43.284Z,52.30
2018-12-12T21:17:10.740Z,52.30
2018-12-12T21:19:38.196Z,52.30
2018-12-12T21:22:05.692Z,52.30
2018-12-12T21:24:33.211Z,52.30
2018-12-12T21:27:00.652Z,52.30
2018-12-12T21:29:28.121Z,52.30
2018-12-12T21:31:55.579Z,52.60
2018-12-12T21:34:23.026Z,52.70
2018-12-12T21:36:50.484Z,49.70
2018-12-12T21:39:18.068Z,45.60
2018-12-12T21:41:45.505Z,45.90
2018-12-12T21:44:12.962Z,45.60
2018-12-12T21:46:40.517Z,45.80
2018-12-12T21:49:07.973Z,46.20
2018-12-12T21:51:35.453Z,46.40
2018-12-12T21:54:02.984Z,46.80
2018-12-12T21:56:30.445Z,46.90
2018-12-12T21:58:57.893Z,47.10
2018-12-12T22:01:25.325Z,47.10
2018-12-12T22:03:52.780Z,47.40
2018-12-12T22:06:20.216Z,47.60
2018-12-12T22:08:47.660Z,47.70
2018-12-12T22:11:15.181Z,47.90
2018-12-12T22:13:42.742Z,48.10
2018-12-12T22:16:10.193Z,48.20
2018-12-12T22:18:37.648Z,48.30
2018-12-12T22:21:05.105Z,48.50
2018-12-12T22:23:32.565Z,48.60
2018-12-12T22:26:00.016Z,48.80
2018-12-12T22:28:27.473Z,48.90
2018-12-12T22:30:54.933Z,49.10
2018-12-12T22:33:22.389Z,49.20
2018-12-12T22:35:49.829Z,49.40
2018-12-12T22:38:17.277Z,49.50
2018-12-12T22:40:44.744Z,49.60
2018-12-12T22:43:12.184Z,49.60
2018-12-12T22:45:39.664Z,49.60
2018-12-12T22:48:07.126Z,49.80
2018-12-12T22:50:34.576Z,49.80
2018-12-12T22:53:02.032Z,49.90
2018-12-12T22:55:29.592Z,50.00
2018-12-12T22:57:57.055Z,50.00
2018-12-12T23:00:37.109Z,50.10
2018-12-12T23:03:04.861Z,50.10
2018-12-12T23:05:32.317Z,50.20
2018-12-12T23:07:59.777Z,50.20
2018-12-12T23:10:27.233Z,50.30
2018-12-12T23:12:54.680Z,50.30
2018-12-12T23:15:22.145Z,50.40
2018-12-12T23:17:49.580Z,50.40
2018-12-12T23:20:17.048Z,50.30
2018-12-12T23:22:44.508Z,50.40
2018-12-12T23:25:11.960Z,50.50
2018-12-12T23:27:39.413Z,50.50
2018-12-12T23:30:07.809Z,50.50
2018-12-12T23:32:35.357Z,50.60
2018-12-12T23:35:02.812Z,50.60
2018-12-12T23:37:30.272Z,50.60
2018-12-12T23:39:57.713Z,50.70
2018-12-12T23:42:25.185Z,50.60
2018-12-12T23:44:52.649Z,50.60
2018-12-12T23:47:20.193Z,50.70
2018-12-12T23:49:47.650Z,50.70
2018-12-12T23:52:15.108Z,50.70
2018-12-12T23:54:42.556Z,50.80
2018-12-12T23:57:10.000Z,50.80
2018-12-12T23:59:37.447Z,50.80
